Terminal Aerodrome Forecast
Issued by NWS

Home | Current Version | Previous Version | Text Only | Print | Product List | Glossary Off
Versions: 1 2 3 4 5 6 7 8 9 10 11 12 13 14 15 16 17 18

220
FTUS42 KMHX 290941 AAA
TAFPGV
TAF AMD
KPGV 290941Z 2910/3006 07003KT P6SM VCSH BKN005
      TEMPO 2910/2912 SCT005 BKN025
     FM291200 07004KT P6SM VCSH OVC020
     FM291400 11007KT 6SM SHRA OVC020
     FM291800 12008KT 5SM SHRA SCT020 OVC035
      AMD LTD TO CLD VIS AND WIND=

USA.gov is the U.S. government's official web portal to all federal, state and local government web resources and services.